Time;durP1;ratioP1;P1;durP2;ratioP2;P2;SDS_P1;SDS_P2;PMS_P1;PMS_P2;Temp;Humidity;BMP_temperature;BMP_pressure;BME280_temperature;BME280_humidity;BME280_pressure;Samples;Min_cycle;Max_cycle;Signal;HPM_P1;HPM_P2
2022/01/10 00:00:22;;;;;;;;;72.75;56.75;5.10;64.60;;;;;;5055641;28;8767;-66
2022/01/10 00:02:52;;;;;;;;;70.00;54.75;4.80;65.90;;;;;;5055133;28;8787;-66
2022/01/10 00:05:18;;;;;;;;;63.75;50.75;4.40;67.70;;;;;;5053935;28;8815;-66
2022/01/10 00:07:44;;;;;;;;;81.00;62.00;4.10;68.80;;;;;;5055126;28;9454;-65
2022/01/10 00:10:10;;;;;;;;;76.00;60.75;4.20;70.30;;;;;;5055119;28;8809;-65
2022/01/10 00:12:37;;;;;;;;;74.25;58.75;4.40;68.50;;;;;;5055224;28;8929;-66
2022/01/10 00:15:03;;;;;;;;;84.00;65.75;4.50;68.20;;;;;;5054922;28;8799;-66
2022/01/10 00:17:29;;;;;;;;;84.00;64.50;4.60;67.40;;;;;;5055152;28;9471;-66
2022/01/10 00:19:55;;;;;;;;;73.50;59.00;4.60;67.10;;;;;;5055183;28;8802;-66
2022/01/10 00:22:23;;;;;;;;;77.75;63.25;4.70;66.20;;;;;;5055202;28;8779;-67
2022/01/10 00:24:49;;;;;;;;;76.75;58.50;4.60;66.80;;;;;;5055271;28;8767;-64
2022/01/10 00:27:14;;;;;;;;;76.25;59.50;4.60;66.00;;;;;;5053294;28;8783;-67
2022/01/10 00:29:40;;;;;;;;;74.50;60.25;4.50;67.40;;;;;;5055187;28;8775;-65
2022/01/10 00:32:06;;;;;;;;;70.50;57.75;4.50;66.60;;;;;;5054999;28;8803;-65
2022/01/10 00:34:32;;;;;;;;;75.25;57.00;4.40;67.10;;;;;;5054927;28;8767;-65
2022/01/10 00:36:58;;;;;;;;;58.00;47.00;4.20;68.90;;;;;;5054623;28;8890;-65
2022/01/10 00:39:24;;;;;;;;;77.50;60.50;4.50;68.30;;;;;;5054762;28;9393;-65
2022/01/10 00:41:50;;;;;;;;;67.50;55.50;4.50;66.90;;;;;;5054644;28;9815;-65
2022/01/10 00:44:15;;;;;;;;;75.50;60.25;4.30;68.40;;;;;;5054918;28;8767;-65
2022/01/10 00:46:41;;;;;;;;;74.50;56.75;4.40;68.10;;;;;;5054654;28;8894;-65
2022/01/10 00:49:08;;;;;;;;;70.00;56.25;4.40;68.30;;;;;;5054841;28;8763;-66
2022/01/10 00:51:34;;;;;;;;;71.75;59.00;4.70;67.10;;;;;;5054772;28;8881;-67
2022/01/10 00:54:00;;;;;;;;;70.75;56.75;4.60;66.90;;;;;;5054702;28;9544;-67
2022/01/10 00:56:26;;;;;;;;;72.25;58.00;4.60;67.40;;;;;;5054666;28;8759;-66
2022/01/10 00:58:52;;;;;;;;;74.25;58.00;4.80;66.30;;;;;;5054374;28;8775;-67
2022/01/10 01:01:19;;;;;;;;;74.50;58.75;5.10;65.40;;;;;;5054359;28;8791;-66
2022/01/10 01:03:46;;;;;;;;;66.00;55.25;4.90;66.40;;;;;;5054392;28;8782;-66
2022/01/10 01:06:13;;;;;;;;;63.50;53.50;4.30;68.50;;;;;;5054392;28;8767;-66
2022/01/10 01:08:40;;;;;;;;;65.75;51.00;4.50;68.10;;;;;;5054612;28;8807;-66
2022/01/10 01:13:55;;;;;;;;;81.50;62.50;4.60;67.60;;;;;;5054198;28;8751;-67
2022/01/10 01:24:17;;;;;;;;;77.75;58.75;4.30;68.40;;;;;;5054230;28;8755;-66
2022/01/10 01:26:49;;;;;;;;;71.50;54.75;4.40;68.60;;;;;;5054155;28;9507;-67
2022/01/10 01:29:18;;;;;;;;;82.00;60.25;4.80;66.80;;;;;;5054184;28;8771;-66
2022/01/10 01:31:44;;;;;;;;;72.75;59.25;5.20;65.10;;;;;;5054058;28;8951;-67
2022/01/10 01:34:11;;;;;;;;;73.50;60.50;5.30;64.00;;;;;;5053038;28;8794;-66
2022/01/10 01:36:38;;;;;;;;;80.50;63.00;5.30;64.20;;;;;;5054074;28;8788;-66
2022/01/10 01:39:17;;;;;;;;;80.25;63.50;5.50;63.70;;;;;;5054407;28;8824;-66
2022/01/10 01:41:43;;;;;;;;;80.75;63.75;5.60;63.20;;;;;;5054043;28;8783;-67
2022/01/10 01:44:10;;;;;;;;;84.50;67.50;5.40;63.90;;;;;;5054239;28;8760;-68
2022/01/10 01:46:37;;;;;;;;;71.00;59.00;5.70;63.60;;;;;;5054344;28;9444;-66
2022/01/10 01:49:05;;;;;;;;;76.75;59.25;5.70;63.00;;;;;;5054258;28;9457;-66
2022/01/10 01:51:32;;;;;;;;;72.00;55.00;5.50;64.00;;;;;;5054126;28;9607;-66
2022/01/10 01:53:57;;;;;;;;;80.75;61.50;5.20;65.00;;;;;;5054553;28;8763;-67
2022/01/10 01:56:24;;;;;;;;;84.25;63.50;5.40;65.10;;;;;;5057832;28;8763;-67
2022/01/10 01:58:55;;;;;;;;;81.00;62.75;5.70;63.70;;;;;;5057780;28;8763;-66
2022/01/10 02:01:23;;;;;;;;;79.00;61.00;5.60;63.90;;;;;;5057750;28;8779;-66
2022/01/10 02:03:50;;;;;;;;;76.00;61.00;5.40;64.80;;;;;;5057860;28;8794;-66
2022/01/10 02:06:16;;;;;;;;;77.25;59.75;4.90;66.30;;;;;;5057913;28;8779;-66
2022/01/10 02:08:42;;;;;;;;;77.50;62.00;5.00;67.30;;;;;;5057844;28;8871;-66
2022/01/10 02:11:11;;;;;;;;;76.75;61.50;5.30;66.30;;;;;;5057736;28;9441;-66
2022/01/10 02:13:38;;;;;;;;;65.00;51.00;5.20;66.70;;;;;;5057742;28;8751;-66
2022/01/10 02:16:05;;;;;;;;;77.75;60.50;5.40;66.30;;;;;;5057431;28;8759;-66
2022/01/10 02:18:31;;;;;;;;;79.00;60.25;5.60;65.00;;;;;;5057449;28;8771;-66
2022/01/10 02:21:00;;;;;;;;;74.75;56.25;5.10;66.30;;;;;;5057573;28;8840;-67
2022/01/10 02:23:27;;;;;;;;;75.75;59.25;5.00;67.80;;;;;;5057314;28;8763;-67
2022/01/10 02:25:54;;;;;;;;;36.25;28.75;4.90;68.10;;;;;;5057243;28;8751;-66
2022/01/10 02:28:20;;;;;;;;;73.75;59.00;4.80;68.70;;;;;;5056901;28;8901;-66
2022/01/10 02:30:46;;;;;;;;;77.25;61.00;4.60;70.50;;;;;;5057163;28;8781;-67
2022/01/10 02:33:12;;;;;;;;;75.25;59.00;4.70;69.70;;;;;;5057276;28;8787;-66
2022/01/10 02:35:49;;;;;;;;;80.75;61.50;4.60;70.70;;;;;;5057349;28;8767;-66
2022/01/10 02:38:15;;;;;;;;;79.25;62.00;4.70;71.20;;;;;;5057275;28;8806;-68
2022/01/10 02:40:41;;;;;;;;;83.50;65.50;4.60;72.70;;;;;;5056947;28;8767;-67
2022/01/10 02:43:08;;;;;;;;;75.25;58.50;4.90;71.00;;;;;;5057188;28;8886;-66
2022/01/10 02:45:34;;;;;;;;;84.75;65.00;5.20;69.30;;;;;;5057175;28;8779;-67
2022/01/10 02:47:59;;;;;;;;;74.50;59.00;5.10;69.80;;;;;;5057048;28;8778;-66
2022/01/10 02:50:25;;;;;;;;;82.00;64.00;5.30;68.90;;;;;;5057064;28;8775;-67
2022/01/10 02:52:51;;;;;;;;;86.25;67.25;5.50;67.70;;;;;;5056625;28;8913;-66
2022/01/10 02:55:18;;;;;;;;;83.25;66.25;5.40;67.00;;;;;;5056747;28;9425;-66
2022/01/10 02:57:43;;;;;;;;;67.00;48.50;4.90;70.30;;;;;;5056932;28;8775;-64
2022/01/10 03:00:19;;;;;;;;;81.25;61.50;5.00;69.60;;;;;;5056634;28;8779;-64
2022/01/10 03:02:49;;;;;;;;;78.50;63.50;5.20;68.80;;;;;;5056652;28;8863;-64
2022/01/10 03:05:15;;;;;;;;;80.75;62.50;5.20;69.10;;;;;;5056350;28;8766;-65
2022/01/10 03:07:41;;;;;;;;;78.75;62.25;5.30;67.90;;;;;;5056541;28;8787;-66
2022/01/10 03:10:08;;;;;;;;;79.75;63.25;4.40;72.00;;;;;;5056459;28;8759;-66
2022/01/10 03:12:35;;;;;;;;;83.00;62.50;4.60;72.00;;;;;;5056482;28;8897;-66
2022/01/10 03:15:03;;;;;;;;;78.50;62.25;4.30;73.60;;;;;;5056305;28;8759;-66
2022/01/10 03:17:29;;;;;;;;;80.75;62.00;4.50;73.90;;;;;;5056430;28;9476;-67
2022/01/10 03:19:55;;;;;;;;;73.50;59.50;4.30;73.10;;;;;;5056217;28;8763;-67
2022/01/10 03:22:20;;;;;;;;;76.00;61.00;4.10;75.50;;;;;;5056383;28;8767;-66
2022/01/10 03:24:46;;;;;;;;;78.75;59.00;3.90;77.70;;;;;;5056167;28;8897;-66
2022/01/10 03:27:12;;;;;;;;;81.50;63.75;3.80;78.90;;;;;;5056126;28;8755;-67
2022/01/10 03:29:38;;;;;;;;;74.50;59.00;4.00;77.60;;;;;;5056296;28;9453;-66
2022/01/10 03:32:06;;;;;;;;;78.00;62.50;4.00;77.20;;;;;;5056198;28;8822;-66
2022/01/10 03:34:32;;;;;;;;;84.75;66.00;4.10;76.40;;;;;;5056210;28;8763;-66
2022/01/10 03:36:58;;;;;;;;;82.25;66.00;4.10;76.70;;;;;;5055765;28;8787;-67
2022/01/10 03:39:24;;;;;;;;;87.00;63.75;4.10;76.40;;;;;;5055820;28;8796;-66
2022/01/10 03:41:50;;;;;;;;;86.25;66.75;3.90;78.40;;;;;;5055758;28;8778;-66
2022/01/10 03:44:16;;;;;;;;;87.25;65.50;4.10;77.20;;;;;;5055796;28;8755;-66
2022/01/10 03:46:42;;;;;;;;;85.75;65.50;4.10;76.90;;;;;;5055674;28;8789;-66
2022/01/10 03:49:08;;;;;;;;;83.25;63.25;3.90;78.10;;;;;;5055928;28;8767;-67
2022/01/10 03:51:33;;;;;;;;;78.25;62.75;3.60;80.10;;;;;;5055553;28;8794;-66
2022/01/10 03:53:59;;;;;;;;;84.75;64.25;3.40;82.20;;;;;;5055635;28;8951;-66
2022/01/10 03:56:29;;;;;;;;;83.50;63.00;3.50;82.50;;;;;;5055505;28;8767;-66
2022/01/10 03:58:55;;;;;;;;;74.25;58.75;3.50;81.80;;;;;;5054439;28;9566;-66
2022/01/10 04:01:21;;;;;;;;;76.00;59.00;3.70;80.40;;;;;;5055465;28;8755;-67
2022/01/10 04:03:47;;;;;;;;;53.25;47.50;3.50;79.40;;;;;;5055347;28;8763;-66
2022/01/10 04:06:13;;;;;;;;;73.50;58.50;3.40;81.30;;;;;;5055332;28;8794;-66
2022/01/10 04:08:39;;;;;;;;;70.25;57.25;3.10;83.50;;;;;;5055851;28;8799;-66
2022/01/10 04:11:05;;;;;;;;;73.25;57.75;3.50;82.90;;;;;;5055198;28;8743;-66
2022/01/10 04:13:31;;;;;;;;;67.75;53.50;3.70;79.70;;;;;;5055220;28;8783;-66
2022/01/10 04:15:57;;;;;;;;;73.00;58.75;3.70;80.50;;;;;;5055364;28;8771;-66
2022/01/10 04:18:23;;;;;;;;;74.50;57.00;3.90;78.40;;;;;;5054509;28;8790;-67
2022/01/10 04:20:49;;;;;;;;;73.50;56.25;4.00;77.20;;;;;;5055025;28;8813;-66
2022/01/10 04:23:17;;;;;;;;;75.50;59.00;4.00;76.40;;;;;;5055311;28;9660;-66
2022/01/10 04:25:43;;;;;;;;;64.50;49.75;3.90;77.90;;;;;;5055004;28;8878;-67
2022/01/10 04:28:09;;;;;;;;;70.00;54.00;3.70;78.40;;;;;;5054834;28;8933;-67
2022/01/10 04:30:35;;;;;;;;;68.75;55.00;3.40;80.20;;;;;;5054944;28;8771;-67
2022/01/10 04:33:02;;;;;;;;;69.50;54.75;3.50;81.20;;;;;;5055067;28;8815;-66
2022/01/10 04:35:30;;;;;;;;;73.00;57.00;3.50;80.10;;;;;;5054751;28;8767;-66
2022/01/10 04:37:56;;;;;;;;;73.00;57.75;3.40;82.00;;;;;;5055011;28;8811;-66
2022/01/10 04:40:23;;;;;;;;;72.00;56.75;3.60;79.70;;;;;;5055008;28;8751;-66
2022/01/10 04:42:49;;;;;;;;;80.00;62.00;3.60;79.80;;;;;;5054632;28;8775;-66
2022/01/10 04:45:16;;;;;;;;;64.50;48.50;3.40;80.60;;;;;;5054604;28;8813;-67
2022/01/10 04:47:42;;;;;;;;;81.00;60.75;3.60;80.30;;;;;;5054580;28;8779;-67
2022/01/10 04:52:34;;;;;;;;;68.25;54.00;3.70;77.40;;;;;;5054752;28;8813;-66
2022/01/10 04:55:00;;;;;;;;;67.25;54.00;3.60;79.30;;;;;;5054715;28;8763;-66
2022/01/10 04:57:27;;;;;;;;;63.75;53.50;3.10;83.00;;;;;;5054476;28;8881;-66
2022/01/10 04:59:53;;;;;;;;;65.00;53.00;3.20;81.80;;;;;;5054731;28;9559;-66
2022/01/10 05:02:18;;;;;;;;;65.00;53.00;3.30;82.10;;;;;;5054403;28;8798;-66
2022/01/10 05:04:45;;;;;;;;;65.00;53.75;3.40;82.40;;;;;;5054618;28;8771;-66
2022/01/10 05:07:11;;;;;;;;;54.50;44.50;3.40;81.50;;;;;;5054316;28;8894;-66
2022/01/10 05:09:37;;;;;;;;;69.25;54.75;3.40;80.90;;;;;;5054361;28;8751;-67
2022/01/10 05:12:03;;;;;;;;;57.75;48.75;3.40;80.20;;;;;;5054217;28;8822;-66
2022/01/10 05:14:29;;;;;;;;;54.00;47.25;3.40;79.40;;;;;;5054546;28;8779;-67
2022/01/10 05:16:55;;;;;;;;;48.00;43.00;3.10;82.20;;;;;;5054242;28;8771;-66
2022/01/10 05:19:20;;;;;;;;;56.50;44.25;3.20;82.80;;;;;;5054207;28;8775;-66
2022/01/10 05:21:46;;;;;;;;;66.25;51.00;2.80;86.00;;;;;;5054205;28;8797;-66
2022/01/10 05:24:12;;;;;;;;;60.50;49.00;2.30;90.20;;;;;;5054189;28;8775;-66
2022/01/10 05:26:38;;;;;;;;;50.25;43.75;2.30;90.20;;;;;;5054497;28;8790;-66
2022/01/10 05:29:04;;;;;;;;;57.50;49.25;2.40;90.40;;;;;;5054559;28;8920;-66
2022/01/10 05:31:33;;;;;;;;;68.50;53.00;2.50;89.30;;;;;;5058176;28;8795;-66
2022/01/10 05:34:00;;;;;;;;;63.50;48.50;2.40;89.70;;;;;;5058219;28;8864;-66
2022/01/10 05:36:26;;;;;;;;;53.00;46.25;2.70;88.60;;;;;;5058460;28;9537;-66
2022/01/10 05:38:52;;;;;;;;;45.50;42.00;2.60;86.30;;;;;;5058415;28;8799;-66
2022/01/10 05:41:21;;;;;;;;;62.75;51.50;2.70;84.50;;;;;;5058403;28;8756;-66
2022/01/10 05:43:47;;;;;;;;;61.00;49.50;2.30;88.20;;;;;;5058076;28;8877;-66
2022/01/10 05:46:15;;;;;;;;;59.00;47.50;2.20;89.60;;;;;;5058023;28;8844;-66
2022/01/10 05:48:46;;;;;;;;;65.75;53.00;1.90;90.40;;;;;;5058061;28;9421;-66
2022/01/10 05:51:13;;;;;;;;;65.50;53.00;2.00;90.00;;;;;;5058048;28;8848;-66
2022/01/10 05:53:39;;;;;;;;;68.50;53.00;2.60;85.70;;;;;;5057991;28;8893;-66
2022/01/10 05:56:05;;;;;;;;;71.75;56.00;2.40;85.20;;;;;;5057830;28;8890;-66
2022/01/10 05:58:31;;;;;;;;;67.00;56.50;2.70;83.70;;;;;;5057751;28;8821;-66
2022/01/10 06:00:57;;;;;;;;;68.75;55.50;2.90;81.90;;;;;;5057985;28;8755;-66
2022/01/10 06:03:23;;;;;;;;;69.25;54.75;2.40;83.80;;;;;;5058094;28;8775;-66
2022/01/10 06:05:49;;;;;;;;;65.25;52.00;2.30;85.10;;;;;;5057857;28;8766;-66
2022/01/10 06:08:15;;;;;;;;;66.25;53.75;2.40;84.80;;;;;;5057675;28;8842;-66
2022/01/10 06:10:41;;;;;;;;;72.50;58.00;2.40;83.70;;;;;;5057640;28;8872;-67
2022/01/10 06:13:06;;;;;;;;;63.75;54.00;2.40;83.90;;;;;;5057338;28;8799;-66
2022/01/10 06:15:33;;;;;;;;;63.25;51.50;2.30;85.20;;;;;;5057493;28;8779;-66
2022/01/10 06:17:58;;;;;;;;;59.00;49.75;2.30;84.80;;;;;;5057406;28;8783;-66
2022/01/10 06:20:24;;;;;;;;;59.00;49.25;2.40;84.60;;;;;;5057315;28;8783;-66
2022/01/10 06:22:50;;;;;;;;;65.75;52.75;2.40;83.20;;;;;;5057267;28;8893;-66
2022/01/10 06:25:20;;;;;;;;;65.25;51.75;2.30;84.50;;;;;;5057194;28;8767;-66
2022/01/10 06:27:46;;;;;;;;;70.25;56.00;2.40;84.40;;;;;;5056963;28;8972;-66
2022/01/10 06:30:12;;;;;;;;;66.75;53.00;2.60;82.80;;;;;;5057415;28;8763;-66
2022/01/10 06:32:38;;;;;;;;;79.50;60.25;2.80;81.00;;;;;;5057218;28;8825;-66
2022/01/10 06:35:05;;;;;;;;;77.00;60.50;2.70;82.10;;;;;;5057019;28;8775;-66
2022/01/10 06:37:30;;;;;;;;;77.00;58.25;2.70;81.80;;;;;;5056877;28;8811;-66
2022/01/10 06:39:56;;;;;;;;;59.50;50.00;2.50;81.90;;;;;;5056395;28;8771;-66
2022/01/10 06:42:22;;;;;;;;;65.25;49.75;2.40;83.80;;;;;;5056872;28;8767;-66
2022/01/10 06:44:48;;;;;;;;;65.50;50.00;2.60;83.10;;;;;;5057077;28;8783;-66
2022/01/10 06:47:14;;;;;;;;;70.00;55.75;2.30;85.20;;;;;;5056991;28;8821;-66
2022/01/10 06:49:40;;;;;;;;;72.25;55.75;2.50;84.50;;;;;;5056672;28;8755;-66
2022/01/10 06:52:06;;;;;;;;;71.00;56.00;2.50;83.90;;;;;;5056651;28;8791;-66
2022/01/10 06:54:32;;;;;;;;;78.25;61.00;2.50;84.00;;;;;;5056690;28;8796;-66
2022/01/10 06:56:58;;;;;;;;;74.50;62.25;2.60;82.70;;;;;;5056864;28;8767;-66
2022/01/10 06:59:28;;;;;;;;;77.25;58.00;2.60;83.50;;;;;;5056778;28;8775;-66
2022/01/10 07:01:56;;;;;;;;;80.50;63.25;2.70;84.60;;;;;;5056652;28;8755;-66
2022/01/10 07:04:23;;;;;;;;;87.75;68.75;2.70;83.70;;;;;;5056462;28;8775;-67
2022/01/10 07:06:49;;;;;;;;;81.50;62.50;2.60;84.90;;;;;;5056350;28;8901;-67
2022/01/10 07:09:15;;;;;;;;;84.00;67.25;2.80;83.00;;;;;;5056477;28;8771;-66
2022/01/10 07:11:41;;;;;;;;;83.00;62.75;2.80;83.90;;;;;;5056267;28;8799;-66
2022/01/10 07:14:07;;;;;;;;;90.00;70.00;3.10;79.80;;;;;;5056255;28;8887;-66
2022/01/10 07:16:34;;;;;;;;;97.25;74.75;2.70;81.80;;;;;;5056126;28;8771;-66
2022/01/10 07:19:00;;;;;;;;;91.00;70.50;2.50;84.80;;;;;;5056127;28;8775;-66
2022/01/10 07:21:26;;;;;;;;;92.00;71.50;2.60;85.60;;;;;;5056481;28;8763;-66
2022/01/10 07:23:52;;;;;;;;;84.00;64.25;2.60;84.40;;;;;;5056196;28;8763;-66
2022/01/10 07:26:18;;;;;;;;;86.25;68.00;2.80;83.80;;;;;;5056104;28;8777;-67
2022/01/10 07:28:44;;;;;;;;;82.50;65.50;3.20;80.80;;;;;;5055798;28;8799;-66
2022/01/10 07:31:10;;;;;;;;;75.25;61.00;3.00;79.70;;;;;;5056178;28;8775;-66
2022/01/10 07:33:37;;;;;;;;;71.00;57.00;3.00;81.60;;;;;;5055782;28;9425;-66
2022/01/10 07:36:04;;;;;;;;;71.50;56.50;3.00;81.00;;;;;;5055913;28;8801;-66
2022/01/10 07:38:35;;;;;;;;;72.25;56.00;2.80;82.50;;;;;;5056075;28;8838;-66
2022/01/10 07:41:06;;;;;;;;;80.50;63.00;2.70;83.10;;;;;;5055829;28;8839;-67
2022/01/10 07:43:32;;;;;;;;;82.25;64.00;2.90;81.80;;;;;;5056121;28;8977;-66
2022/01/10 07:45:58;;;;;;;;;87.75;69.50;3.20;79.90;;;;;;5055490;28;8779;-66
2022/01/10 07:48:25;;;;;;;;;72.50;57.50;3.10;80.70;;;;;;5054669;28;8840;-67
2022/01/10 07:50:51;;;;;;;;;89.25;70.00;3.10;79.40;;;;;;5055898;28;8798;-66
2022/01/10 07:53:17;;;;;;;;;85.25;66.00;2.90;80.70;;;;;;5054443;28;8807;-66
2022/01/10 07:55:43;;;;;;;;;84.00;61.75;3.00;81.10;;;;;;5055687;28;8770;-67
2022/01/10 07:58:09;;;;;;;;;78.25;63.25;3.30;79.60;;;;;;5055413;28;8775;-66
2022/01/10 08:00:35;;;;;;;;;80.25;61.25;3.70;76.60;;;;;;5055415;28;8778;-65
2022/01/10 08:03:01;;;;;;;;;78.50;63.25;3.70;74.80;;;;;;5055373;28;8786;-64
2022/01/10 08:05:27;;;;;;;;;85.25;67.00;3.60;75.80;;;;;;5055533;28;8838;-64
2022/01/10 08:07:52;;;;;;;;;84.25;67.25;4.00;74.20;;;;;;5055417;28;9532;-66
2022/01/10 08:10:18;;;;;;;;;77.00;60.00;3.80;73.90;;;;;;5055250;28;8895;-65
2022/01/10 08:12:44;;;;;;;;;82.75;65.75;3.20;77.20;;;;;;5055445;28;8783;-66
2022/01/10 08:15:10;;;;;;;;;86.75;68.25;2.90;80.20;;;;;;5055408;28;8759;-66
2022/01/10 08:17:36;;;;;;;;;78.75;61.25;2.80;82.90;;;;;;5055135;28;8824;-65
2022/01/10 08:20:04;;;;;;;;;84.00;65.75;3.30;79.40;;;;;;5054958;28;8878;-69
2022/01/10 08:22:30;;;;;;;;;73.25;54.25;3.50;77.90;;;;;;5054935;28;8767;-66
2022/01/10 08:24:56;;;;;;;;;75.50;58.25;3.40;76.60;;;;;;5054959;28;8832;-68
2022/01/10 08:27:22;;;;;;;;;69.50;55.00;3.40;77.20;;;;;;5053792;28;8771;-68
2022/01/10 08:29:48;;;;;;;;;72.75;57.00;3.10;80.40;;;;;;5054192;28;8774;-68
2022/01/10 08:32:15;;;;;;;;;74.25;61.50;2.70;82.40;;;;;;5053876;28;8834;-68
2022/01/10 08:34:41;;;;;;;;;78.50;62.75;2.60;85.40;;;;;;5053549;28;8767;-69
2022/01/10 08:37:08;;;;;;;;;82.25;64.00;2.70;82.90;;;;;;5051600;28;8798;-68
2022/01/10 08:39:34;;;;;;;;;86.25;69.00;3.00;81.60;;;;;;5054840;28;8828;-68
2022/01/10 08:42:00;;;;;;;;;74.25;58.00;3.10;80.10;;;;;;5054832;28;8771;-68
2022/01/10 08:44:26;;;;;;;;;81.00;61.75;3.20;79.90;;;;;;5054611;28;8801;-69
2022/01/10 08:46:52;;;;;;;;;74.75;59.50;3.00;80.60;;;;;;5054553;28;8771;-69
2022/01/10 08:49:18;;;;;;;;;77.00;61.00;3.10;80.90;;;;;;5054746;28;8783;-69
2022/01/10 08:51:45;;;;;;;;;84.00;65.75;3.10;79.40;;;;;;5054411;28;9676;-67
2022/01/10 08:54:11;;;;;;;;;77.50;60.25;3.00;80.40;;;;;;5054384;28;8779;-68
2022/01/10 08:56:37;;;;;;;;;78.25;58.50;3.10;79.10;;;;;;5054681;28;8837;-67
2022/01/10 08:59:04;;;;;;;;;71.75;60.00;3.10;79.40;;;;;;5054270;28;8811;-67
2022/01/10 09:01:31;;;;;;;;;65.75;55.25;3.00;79.60;;;;;;5054320;28;8747;-66
2022/01/10 09:03:57;;;;;;;;;73.00;53.25;2.80;80.40;;;;;;5054085;28;8794;-67
2022/01/10 09:06:23;;;;;;;;;77.75;63.50;2.70;78.80;;;;;;5054360;28;8767;-66
2022/01/10 09:08:51;;;;;;;;;83.25;65.25;2.90;79.30;;;;;;5053335;28;8820;-65
2022/01/10 09:11:18;;;;;;;;;83.75;66.00;3.10;77.90;;;;;;5054078;28;8785;-66
2022/01/10 09:13:44;;;;;;;;;83.50;63.25;3.40;75.40;;;;;;5054250;28;8798;-65
2022/01/10 09:16:11;;;;;;;;;81.00;63.75;3.30;74.80;;;;;;5054526;28;8791;-65
2022/01/10 09:18:38;;;;;;;;;79.50;63.00;2.90;76.80;;;;;;5054452;28;8877;-64
2022/01/10 09:21:04;;;;;;;;;69.75;58.50;2.70;80.20;;;;;;5054147;28;8771;-63
2022/01/10 09:23:30;;;;;;;;;72.25;56.75;2.90;79.10;;;;;;5054110;28;8774;-66
2022/01/10 09:25:56;;;;;;;;;75.25;59.00;2.80;78.20;;;;;;5054328;28;8866;-59
2022/01/10 09:28:23;;;;;;;;;74.00;57.75;2.90;78.50;;;;;;5054063;28;8806;-60
2022/01/10 09:30:49;;;;;;;;;69.00;55.75;2.90;77.50;;;;;;5054362;28;8810;-66
2022/01/10 09:33:15;;;;;;;;;83.00;66.75;2.60;80.30;;;;;;5053958;28;8830;-63
2022/01/10 09:35:43;;;;;;;;;78.25;61.00;2.60;81.70;;;;;;5053829;28;8767;-65
2022/01/10 09:38:10;;;;;;;;;79.50;62.25;2.50;82.20;;;;;;5054083;28;8842;-65
2022/01/10 09:40:36;;;;;;;;;87.75;65.25;2.70;81.90;;;;;;5054005;28;9457;-67
2022/01/10 09:43:02;;;;;;;;;71.50;57.00;3.00;78.60;;;;;;5054210;28;8763;-65
2022/01/10 09:45:29;;;;;;;;;77.25;58.25;2.80;79.40;;;;;;5054104;28;8759;-68
2022/01/10 09:47:55;;;;;;;;;80.50;63.25;2.80;79.70;;;;;;5054093;28;8763;-69
2022/01/10 09:50:21;;;;;;;;;76.50;58.50;3.00;79.10;;;;;;5053766;28;8755;-67
2022/01/10 09:52:50;;;;;;;;;83.25;61.50;3.30;77.90;;;;;;5052879;28;8885;-67
2022/01/10 09:55:16;;;;;;;;;74.75;58.00;3.20;78.10;;;;;;5053226;28;8775;-65
2022/01/10 09:57:42;;;;;;;;;65.75;51.25;2.90;79.70;;;;;;5054074;28;8767;-65
2022/01/10 10:00:11;;;;;;;;;69.00;55.25;3.00;80.00;;;;;;5053654;28;8783;-66
2022/01/10 10:02:40;;;;;;;;;87.25;69.00;2.80;80.60;;;;;;5053875;28;8790;-66
2022/01/10 10:05:09;;;;;;;;;68.75;56.75;2.90;80.00;;;;;;5054013;28;9420;-67
2022/01/10 10:07:40;;;;;;;;;72.50;58.25;2.90;80.90;;;;;;5053718;28;8815;-65
2022/01/10 10:10:11;;;;;;;;;83.75;67.00;2.70;82.00;;;;;;5053231;28;9467;-66
2022/01/10 10:12:42;;;;;;;;;78.00;62.50;2.70;81.00;;;;;;5037525;28;8787;-64
2022/01/10 10:15:11;;;;;;;;;82.50;64.00;3.00;79.30;;;;;;5053272;28;8794;-65
2022/01/10 10:17:38;;;;;;;;;74.00;59.75;3.10;78.20;;;;;;5056539;28;8793;-63
2022/01/10 10:20:09;;;;;;;;;67.25;55.00;3.20;76.10;;;;;;5055749;28;8779;-65
2022/01/10 10:22:38;;;;;;;;;70.75;55.00;3.00;77.00;;;;;;5054231;28;8802;-64
2022/01/10 10:25:06;;;;;;;;;71.00;55.50;3.20;75.50;;;;;;5056854;28;9513;-65
2022/01/10 10:27:38;;;;;;;;;70.50;54.50;3.50;73.80;;;;;;5056774;28;8767;-66
2022/01/10 10:30:18;;;;;;;;;71.00;56.75;3.70;71.70;;;;;;5057455;28;8786;-66
2022/01/10 10:32:44;;;;;;;;;73.00;59.50;3.70;71.50;;;;;;5057234;28;8814;-65
2022/01/10 10:35:11;;;;;;;;;67.50;53.25;4.20;69.60;;;;;;5055912;28;8755;-66
2022/01/10 10:37:38;;;;;;;;;71.25;55.00;4.00;68.30;;;;;;5056027;28;8932;-65
2022/01/10 10:40:08;;;;;;;;;67.00;55.50;4.20;68.20;;;;;;5056904;28;8849;-65
2022/01/10 10:42:34;;;;;;;;;68.75;56.00;4.30;67.30;;;;;;5056385;28;8856;-65
2022/01/10 10:45:04;;;;;;;;;74.75;59.00;4.00;67.60;;;;;;5056758;28;8852;-65
2022/01/10 10:47:30;;;;;;;;;70.00;56.50;4.00;68.80;;;;;;5056878;28;8881;-67
2022/01/10 10:50:00;;;;;;;;;71.25;55.75;4.00;68.60;;;;;;5056683;28;8815;-66
2022/01/10 10:52:34;;;;;;;;;69.75;56.00;3.80;69.20;;;;;;5057038;28;9507;-64
2022/01/10 10:55:13;;;;;;;;;67.00;52.50;3.70;67.40;;;;;;5055747;28;8906;-66
2022/01/10 10:57:40;;;;;;;;;52.25;43.00;3.70;67.30;;;;;;5054621;28;8914;-73
2022/01/10 11:00:12;;;;;;;;;71.50;56.75;4.00;66.50;;;;;;5056200;28;8861;-71
2022/01/10 11:02:39;;;;;;;;;76.50;59.25;3.90;67.40;;;;;;5056629;28;8751;-68
2022/01/10 11:05:06;;;;;;;;;72.50;58.00;4.10;67.80;;;;;;5056630;28;9432;-66
2022/01/10 11:07:34;;;;;;;;;66.00;55.00;4.80;65.20;;;;;;5054861;28;8823;-69
2022/01/10 11:10:06;;;;;;;;;68.75;56.75;4.50;63.70;;;;;;5055967;28;8782;-69
2022/01/10 11:12:36;;;;;;;;;68.25;53.50;4.60;63.80;;;;;;5052837;28;8810;-68
2022/01/10 11:15:03;;;;;;;;;64.50;53.00;4.40;64.00;;;;;;5055804;28;8756;-68
2022/01/10 11:17:29;;;;;;;;;66.50;55.75;4.00;64.90;;;;;;5054584;28;8802;-67
2022/01/10 11:20:17;;;;;;;;;61.75;50.25;3.90;66.50;;;;;;5056242;28;8751;-68
2022/01/10 11:22:55;;;;;;;;;68.50;53.00;3.90;66.80;;;;;;5056153;28;8755;-68
2022/01/10 11:25:28;;;;;;;;;67.25;53.75;4.10;65.40;;;;;;5056024;28;8782;-68
2022/01/10 11:27:57;;;;;;;;;72.25;57.00;4.30;65.70;;;;;;5055700;28;8807;-68
2022/01/10 11:30:32;;;;;;;;;67.50;54.50;4.20;65.60;;;;;;5055272;28;8763;-68
2022/01/10 11:33:18;;;;;;;;;73.25;56.50;4.00;67.00;;;;;;5055376;28;8829;-68
2022/01/10 11:35:51;;;;;;;;;77.50;58.25;4.10;67.50;;;;;;5055448;28;9406;-68
2022/01/10 11:38:29;;;;;;;;;70.75;57.00;3.90;67.80;;;;;;5055496;28;8922;-63
2022/01/10 11:41:31;;;;;;;;;76.00;58.75;4.30;67.10;;;;;;5055619;28;8759;-71
2022/01/10 11:44:10;;;;;;;;;68.25;56.75;4.20;64.80;;;;;;4993690;28;9572;-68
2022/01/10 11:46:47;;;;;;;;;68.00;54.00;3.90;65.00;;;;;;4994430;28;8888;-72
2022/01/10 11:49:12;;;;;;;;;62.25;51.00;3.50;67.10;;;;;;4994264;28;8897;-70
2022/01/10 11:51:41;;;;;;;;;68.50;54.25;3.80;66.80;;;;;;4994067;28;8798;-68
2022/01/10 11:54:40;;;;;;;;;71.00;57.25;4.30;65.30;;;;;;4993989;28;8758;-62
2022/01/10 11:57:09;;;;;;;;;71.50;58.25;4.40;63.90;;;;;;4986895;28;8880;-63
2022/01/10 11:59:43;;;;;;;;;65.00;53.00;4.50;64.10;;;;;;4993891;28;9428;-65
2022/01/10 12:02:16;;;;;;;;;72.75;57.00;4.40;64.50;;;;;;4992900;28;8909;-66
2022/01/10 12:04:46;;;;;;;;;69.75;54.00;4.00;66.20;;;;;;4993653;28;8787;-69
2022/01/10 12:07:15;;;;;;;;;71.00;58.50;4.00;66.20;;;;;;4993839;28;8798;-68
2022/01/10 12:09:41;;;;;;;;;56.75;47.75;4.10;65.70;;;;;;4977318;28;8782;-64
2022/01/10 12:12:09;;;;;;;;;66.50;53.75;4.40;64.70;;;;;;4993393;28;8810;-67
2022/01/10 12:14:36;;;;;;;;;68.00;54.25;4.20;64.40;;;;;;4993536;28;9463;-68
2022/01/10 12:17:02;;;;;;;;;70.00;57.75;3.80;65.40;;;;;;4993546;28;8867;-71
2022/01/10 12:19:28;;;;;;;;;72.25;57.75;3.60;65.50;;;;;;4999758;28;8785;-67
2022/01/10 12:21:56;;;;;;;;;76.25;60.00;3.60;66.00;;;;;;5043821;28;8870;-69
2022/01/10 12:24:22;;;;;;;;;71.00;54.50;3.70;64.70;;;;;;5054717;28;8795;-70
2022/01/10 12:26:48;;;;;;;;;76.25;58.50;3.60;64.90;;;;;;5053441;28;8752;-69
2022/01/10 12:29:16;;;;;;;;;79.25;60.25;3.80;64.20;;;;;;5053642;28;8898;-69
2022/01/10 12:31:44;;;;;;;;;72.50;58.50;3.90;64.70;;;;;;5052013;28;8802;-67
2022/01/10 12:34:11;;;;;;;;;73.50;57.00;3.80;64.70;;;;;;5054466;28;8784;-67
2022/01/10 12:36:40;;;;;;;;;83.00;63.50;3.90;65.50;;;;;;5052171;28;8929;-68
2022/01/10 12:39:11;;;;;;;;;75.00;56.25;4.20;64.80;;;;;;5053973;28;8834;-67
2022/01/10 12:41:38;;;;;;;;;66.75;52.50;4.20;65.60;;;;;;5054776;28;8767;-67
2022/01/10 12:44:04;;;;;;;;;61.00;49.75;4.10;64.90;;;;;;5054548;28;8763;-68
2022/01/10 12:46:33;;;;;;;;;70.00;57.25;3.80;64.60;;;;;;5054441;28;8759;-67
2022/01/10 12:49:05;;;;;;;;;73.50;58.25;4.00;65.80;;;;;;5053271;28;8791;-68
2022/01/10 12:51:38;;;;;;;;;73.75;60.75;4.00;65.90;;;;;;5052979;28;8909;-69
2022/01/10 12:54:10;;;;;;;;;73.75;61.00;4.10;64.30;;;;;;5053340;28;8767;-63
2022/01/10 12:56:36;;;;;;;;;77.25;60.75;3.80;64.10;;;;;;5054387;28;8779;-70
2022/01/10 12:59:03;;;;;;;;;69.25;57.50;3.90;65.80;;;;;;5054373;28;8783;-67
2022/01/10 13:01:29;;;;;;;;;69.75;55.50;3.50;66.00;;;;;;5053164;28;8803;-71